Etusivu
METAR-TAF:

METAR-TAF

Lentoasemat :

Huatulco, Meksiko

Leveyspiiri: 15-47N, Pituuspiiri: 096-16W, korkeus merenpinnasta: 143 m

Tämänhetkinen sää

Tämä raportti tehtiin 1 tunti ja 21 minuuttia sitten, kello 21.42 UTC
Tuuli 10 kn lännestä/lounaasta
Lämpötila 33°C
Kosteus 44%
Ilmanpaine 1010 hPa
Näkyvyys: 12.9 km
Muutamia pilviä 4000 ft:n korkeudessa

METAR: MMBT 212142Z 25010KT 8SM FEW040 33/19 A2983 RMK 8/500 HZY TCU FRMG N

Aika: 17:03 (23:03 UTC)

Sääennuste

Tämä raportti tehtiin 6 tuntia ja 19 minuuttia sitten, kello 16.44 UTC
Ennuste voimassa 21. päivästä klo 18 UTC - 22. päivään klo 18 UTC
Tuuli 8 kn etelästä
Näkyvyys: 10 km
selkeää
Tulossa
22. päivästä klo 02 UTC - 22. päivään klo 03 UTC
Tuuli 5 kn luoteesta
From 22. päivästä klo 1700 UTC
Tuuli 8 kn etelästä
Näkyvyys: 10 km
selkeää

TAF: MMBT 211644Z 2118/2218 17008KT P6SM SKC BECMG 2202/2203 32005KT FM221700 17008KT P6SM SKC

Säähavainnot ja -ennusteet yli 4000 lentoasemalta (METAR- ja TAF-raportit).

Käytössä olevat sääasemat on merkitty karttaan keltaisilla ja punaisilla pisteillä.

Aseta hiiri pisteen päälle nähdäksesi sääaseman nimen.

Klikkaa sitten nähdäksesi säähavainnot ja -ennusteet.

Kartan vaihtaminen: klikkaa mustalla rastilla varustettuja vihreitä pisteitä, niin voit zoomata sisään; viivalla varustettua vihreää pistettä, niin voit zoomata ulos tai vihreitä nuolia, niin pääset viereisille kartoille.


METAR-TAF: